Doris, Washington
Current Conditions -  °F | °C
As of 9:56 PM on Sunday 28 Dec 2014 (Local Time) from K1YT Reporting Station
Light Snow Light Snow  
Wind Chill:   Ceiling: 1000
Heat Index:   Visibility: 1.5mi
Dew Point:   Wind: 3mph
Humidity: 97%   Direction: 80°E
Pressure: 30.13"   Gusts: NA
Location:  46.8679°N, 120.008°W
Report Text: K1YT 290556Z AUTO 08003KT 1 1/2SM -SN FEW004 OVC010 00/00 A3013 RMK AO2 CIG 004V010 SLPNO P0004 60005 T00021002 10027 20002 51003
Loading
Personal Weather Stations






























Interactive Weather Map New forecast layout! Learn more

10-Day Weather Forecast

Advertisements
Track Severe Weather on mobile